createdAt,value
2019-01-09T00:01:09.273Z,4.30
2019-01-09T00:03:39.413Z,3.37
2019-01-09T00:06:09.690Z,4.30
2019-01-09T00:08:39.925Z,3.90
2019-01-09T00:11:09.980Z,4.10
2019-01-09T00:13:39.994Z,4.23
2019-01-09T00:16:09.957Z,3.30
2019-01-09T00:18:40.002Z,3.60
2019-01-09T00:21:10.190Z,3.50
2019-01-09T00:23:40.416Z,3.13
2019-01-09T00:26:10.501Z,3.17
2019-01-09T00:28:40.412Z,3.47
2019-01-09T00:31:10.385Z,3.30
2019-01-09T00:33:40.297Z,3.00
2019-01-09T00:36:10.276Z,3.40
2019-01-09T00:38:40.759Z,3.50
2019-01-09T00:41:10.871Z,3.03
2019-01-09T00:43:41.197Z,3.00
2019-01-09T00:46:11.461Z,3.20
2019-01-09T00:48:41.461Z,3.50
2019-01-09T00:51:12.213Z,3.60
2019-01-09T00:53:42.182Z,3.10
2019-01-09T00:56:12.573Z,2.80
2019-01-09T00:58:42.585Z,3.17
2019-01-09T01:01:12.914Z,2.50
2019-01-09T01:04:12.838Z,3.03
2019-01-09T01:07:25.513Z,2.80
2019-01-09T01:10:50.499Z,3.30
2019-01-09T01:13:57.877Z,2.20
2019-01-09T01:17:14.646Z,2.87
2019-01-09T01:20:16.164Z,2.97
2019-01-09T01:23:32.786Z,2.90
2019-01-09T01:26:24.465Z,3.43
2019-01-09T01:29:18.785Z,2.37
2019-01-09T01:32:02.201Z,2.47
2019-01-09T01:35:13.250Z,2.67
2019-01-09T01:38:10.557Z,2.47
2019-01-09T01:40:49.106Z,2.70
2019-01-09T01:44:06.001Z,2.33
2019-01-09T01:47:16.884Z,2.47
2019-01-09T01:50:20.781Z,2.50
2019-01-09T01:53:10.617Z,1.90
2019-01-09T01:56:06.107Z,2.20
2019-01-09T01:58:52.751Z,2.40
2019-01-09T02:02:19.049Z,2.23
2019-01-09T02:05:09.709Z,2.30
2019-01-09T02:08:45.050Z,2.23
2019-01-09T02:11:36.897Z,2.70
2019-01-09T02:14:37.962Z,2.07
2019-01-09T02:17:45.175Z,2.57
2019-01-09T02:20:50.569Z,2.60
2019-01-09T02:24:16.325Z,2.40
2019-01-09T02:27:17.003Z,2.53
2019-01-09T02:30:11.686Z,2.50
2019-01-09T02:32:41.973Z,2.40
2019-01-09T02:35:12.063Z,2.20
2019-01-09T02:37:42.017Z,2.60
2019-01-09T02:40:11.967Z,2.77
2019-01-09T02:42:42.477Z,2.70
2019-01-09T02:45:12.945Z,2.53
2019-01-09T02:47:42.978Z,2.80
2019-01-09T02:50:12.875Z,2.80
2019-01-09T02:52:43.029Z,2.50
2019-01-09T02:55:13.345Z,3.00
2019-01-09T02:57:43.246Z,3.10
2019-01-09T03:00:13.826Z,2.70
2019-01-09T03:02:43.758Z,2.70
2019-01-09T03:05:13.721Z,2.27
2019-01-09T03:07:43.715Z,2.63
2019-01-09T03:10:13.651Z,3.03
2019-01-09T03:12:43.824Z,3.00
2019-01-09T03:15:14.645Z,2.87
2019-01-09T03:17:44.837Z,3.10
2019-01-09T03:20:14.937Z,2.57
2019-01-09T03:22:45.071Z,2.47
2019-01-09T03:25:15.256Z,2.70
2019-01-09T03:27:45.410Z,2.60
2019-01-09T03:30:15.459Z,3.33
2019-01-09T03:32:45.606Z,3.23
2019-01-09T03:35:15.918Z,3.00
2019-01-09T03:37:46.014Z,2.93
2019-01-09T03:40:16.000Z,2.87
2019-01-09T03:42:46.138Z,2.70
2019-01-09T03:45:16.493Z,2.00
2019-01-09T03:47:46.435Z,2.80
2019-01-09T03:50:16.614Z,2.70
2019-01-09T03:52:46.929Z,2.30
2019-01-09T03:55:17.051Z,2.60
2019-01-09T03:57:47.038Z,3.27
2019-01-09T04:00:17.576Z,2.70
2019-01-09T04:02:47.626Z,3.03
2019-01-09T04:05:17.580Z,2.60
2019-01-09T04:07:47.655Z,3.10
2019-01-09T04:10:17.633Z,2.57
2019-01-09T04:12:47.518Z,3.17
2019-01-09T04:15:17.486Z,3.20
2019-01-09T04:17:47.754Z,3.10
2019-01-09T04:20:17.665Z,2.77
2019-01-09T04:22:47.925Z,2.87
2019-01-09T04:25:20.021Z,2.90
2019-01-09T04:27:50.216Z,3.40
2019-01-09T04:30:20.145Z,3.10
2019-01-09T04:32:50.259Z,2.60
2019-01-09T04:35:20.180Z,2.90
2019-01-09T04:37:50.157Z,2.60
2019-01-09T04:40:20.129Z,3.27
2019-01-09T04:42:50.034Z,2.83
2019-01-09T04:45:20.081Z,3.37
2019-01-09T04:47:50.178Z,3.63
2019-01-09T04:50:20.096Z,2.30
2019-01-09T04:52:50.035Z,2.73
2019-01-09T04:55:20.214Z,2.40
2019-01-09T04:57:50.151Z,2.70
2019-01-09T05:00:20.373Z,2.30
2019-01-09T05:02:50.285Z,2.80
2019-01-09T05:05:20.210Z,2.57
2019-01-09T05:07:50.482Z,3.10
2019-01-09T05:10:20.414Z,2.90
2019-01-09T05:12:50.368Z,2.40
2019-01-09T05:15:20.298Z,2.33
2019-01-09T05:17:50.425Z,3.10
2019-01-09T05:20:20.399Z,2.57
2019-01-09T05:22:50.340Z,3.03
2019-01-09T05:25:20.301Z,2.97
2019-01-09T05:27:50.697Z,3.70
2019-01-09T05:30:21.158Z,3.70
2019-01-09T05:32:51.143Z,3.77
2019-01-09T05:35:21.032Z,5.97
2019-01-09T05:37:50.980Z,2.97
2019-01-09T05:40:21.096Z,3.60
2019-01-09T05:42:51.031Z,5.23
2019-01-09T05:45:21.362Z,4.40
2019-01-09T05:47:51.310Z,3.87
2019-01-09T05:50:21.257Z,3.53
2019-01-09T05:52:51.197Z,3.60
2019-01-09T05:55:21.157Z,3.10
2019-01-09T05:57:51.197Z,3.53
2019-01-09T06:00:21.114Z,4.17
2019-01-09T06:02:51.121Z,3.60
2019-01-09T06:05:21.025Z,3.50
2019-01-09T06:07:50.956Z,4.90
2019-01-09T06:10:20.870Z,5.43
2019-01-09T06:12:50.842Z,4.40
2019-01-09T06:15:20.761Z,4.27
2019-01-09T06:17:50.769Z,3.77
2019-01-09T06:20:21.037Z,3.00
2019-01-09T06:22:51.041Z,4.10
2019-01-09T06:25:21.005Z,3.20
2019-01-09T06:27:50.914Z,3.20
2019-01-09T06:30:21.278Z,2.73
2019-01-09T06:32:51.193Z,3.03
2019-01-09T06:35:21.206Z,3.80
2019-01-09T06:37:51.169Z,3.37
2019-01-09T06:40:21.092Z,4.17
2019-01-09T06:42:51.109Z,3.73
2019-01-09T06:45:21.034Z,3.80
2019-01-09T06:47:51.018Z,2.90
2019-01-09T06:50:21.291Z,2.60
2019-01-09T06:52:51.337Z,3.57
2019-01-09T06:55:21.452Z,4.10
2019-01-09T06:57:51.341Z,3.70
2019-01-09T07:00:21.924Z,3.10
2019-01-09T07:02:52.167Z,3.17
2019-01-09T07:05:22.208Z,3.70
2019-01-09T07:07:53.139Z,3.50
2019-01-09T07:10:23.080Z,3.50
2019-01-09T07:12:53.101Z,4.27
2019-01-09T07:15:23.108Z,4.07
2019-01-09T07:17:53.361Z,5.30
2019-01-09T07:20:23.280Z,4.93
2019-01-09T07:22:53.465Z,5.87
2019-01-09T07:25:24.515Z,4.33
2019-01-09T07:27:55.008Z,5.00
2019-01-09T07:30:25.154Z,5.27
2019-01-09T07:32:55.573Z,5.20
2019-01-09T07:35:25.597Z,5.90
2019-01-09T07:37:55.662Z,5.37
2019-01-09T07:40:25.812Z,5.60
2019-01-09T07:42:55.851Z,4.97
2019-01-09T07:45:26.330Z,4.53
2019-01-09T07:47:56.344Z,3.77
2019-01-09T07:50:26.314Z,5.60
2019-01-09T07:52:56.310Z,5.13
2019-01-09T07:55:26.242Z,5.17
2019-01-09T07:57:56.369Z,5.23
2019-01-09T08:00:26.763Z,5.60
2019-01-09T08:02:56.834Z,6.80
2019-01-09T08:05:26.772Z,8.30
2019-01-09T08:07:56.861Z,8.67
2019-01-09T08:10:26.863Z,8.00
2019-01-09T08:12:56.881Z,7.93
2019-01-09T08:15:26.811Z,7.67
2019-01-09T08:17:56.917Z,7.27
2019-01-09T08:20:26.917Z,6.20
2019-01-09T08:22:56.864Z,7.93
2019-01-09T08:25:28.456Z,8.23
2019-01-09T08:27:58.432Z,6.53
2019-01-09T08:30:28.538Z,7.47
2019-01-09T08:32:58.851Z,6.67
2019-01-09T08:35:29.049Z,6.80
2019-01-09T08:38:03.052Z,6.40
2019-01-09T08:40:30.753Z,5.67
2019-01-09T08:43:00.744Z,6.30
2019-01-09T08:45:30.847Z,5.90
2019-01-09T08:48:02.311Z,5.57
2019-01-09T08:50:32.288Z,6.20
2019-01-09T08:53:02.201Z,5.53
2019-01-09T08:55:32.121Z,5.60
2019-01-09T08:58:02.048Z,6.23
2019-01-09T09:00:32.150Z,5.70
2019-01-09T09:03:02.080Z,5.50
2019-01-09T09:05:32.180Z,5.80
2019-01-09T09:08:11.554Z,6.17
2019-01-09T09:10:35.401Z,6.00
2019-01-09T09:13:05.374Z,6.23
2019-01-09T09:15:35.667Z,5.63
2019-01-09T09:18:05.729Z,6.30
2019-01-09T09:20:35.706Z,6.50
2019-01-09T09:23:05.718Z,6.90
2019-01-09T09:25:35.652Z,6.90
2019-01-09T09:28:05.861Z,6.43
2019-01-09T09:30:35.804Z,7.57
2019-01-09T09:33:06.017Z,6.63
2019-01-09T09:35:35.962Z,6.73
2019-01-09T09:38:05.950Z,6.30
2019-01-09T09:40:36.090Z,7.13
2019-01-09T09:43:06.236Z,7.17
2019-01-09T09:45:36.272Z,6.87
2019-01-09T09:48:06.614Z,7.80
2019-01-09T09:50:36.569Z,7.93
2019-01-09T09:53:06.821Z,7.43
2019-01-09T09:55:37.425Z,8.20
2019-01-09T09:58:07.497Z,8.60
2019-01-09T10:00:37.458Z,7.70
2019-01-09T10:03:07.349Z,8.40
2019-01-09T10:05:37.598Z,8.20
2019-01-09T10:08:07.738Z,8.60
2019-01-09T10:10:39.263Z,7.97
2019-01-09T10:13:09.481Z,9.43
2019-01-09T10:15:39.672Z,8.80
2019-01-09T10:18:09.561Z,10.07
2019-01-09T10:20:39.478Z,9.50
2019-01-09T10:23:09.653Z,10.40
2019-01-09T10:25:40.009Z,10.37
2019-01-09T10:28:09.949Z,10.53
2019-01-09T10:30:40.081Z,11.13
2019-01-09T10:33:10.415Z,11.43
2019-01-09T10:35:40.911Z,10.40
2019-01-09T10:38:11.043Z,9.90
2019-01-09T10:40:41.383Z,9.93
2019-01-09T10:43:11.372Z,9.43
2019-01-09T10:45:41.328Z,10.20
2019-01-09T10:48:11.604Z,10.50
2019-01-09T10:50:41.599Z,10.50
2019-01-09T10:53:11.533Z,10.17
2019-01-09T10:55:41.492Z,10.10
2019-01-09T10:58:11.473Z,10.70
2019-01-09T11:00:41.668Z,9.77
2019-01-09T11:03:11.603Z,10.30
2019-01-09T11:05:41.582Z,9.57
2019-01-09T11:08:11.512Z,10.33
2019-01-09T11:10:41.577Z,9.20
2019-01-09T11:13:11.950Z,9.80
2019-01-09T11:15:41.941Z,10.07
2019-01-09T11:18:11.934Z,10.50
2019-01-09T11:20:41.897Z,12.00
2019-01-09T11:23:12.220Z,11.37
2019-01-09T11:25:42.995Z,12.30
2019-01-09T11:28:12.984Z,11.43
2019-01-09T11:30:43.117Z,11.37
2019-01-09T11:33:13.256Z,10.40
2019-01-09T11:35:43.477Z,11.63
2019-01-09T11:38:13.421Z,11.00
2019-01-09T11:40:43.350Z,11.23
2019-01-09T11:43:13.563Z,10.20
2019-01-09T11:45:43.525Z,10.97
2019-01-09T11:48:14.392Z,10.07
2019-01-09T11:50:44.395Z,11.43
2019-01-09T11:53:14.342Z,11.07
2019-01-09T11:55:44.374Z,11.80
2019-01-09T11:58:14.336Z,10.10
2019-01-09T12:00:44.346Z,9.27
2019-01-09T12:03:14.291Z,9.57
2019-01-09T12:05:44.340Z,9.43
2019-01-09T12:08:14.577Z,9.50
2019-01-09T12:10:44.521Z,9.90
2019-01-09T12:13:14.777Z,9.50
2019-01-09T12:15:44.766Z,9.70
2019-01-09T12:18:14.797Z,8.70
2019-01-09T12:20:44.749Z,10.00
2019-01-09T12:23:14.898Z,9.80
2019-01-09T12:25:44.849Z,8.60
2019-01-09T12:28:14.813Z,8.70
2019-01-09T12:30:45.073Z,9.97
2019-01-09T12:33:15.200Z,9.40
2019-01-09T12:35:45.156Z,8.40
2019-01-09T12:38:15.057Z,9.13
2019-01-09T12:40:45.441Z,7.77
2019-01-09T12:43:16.087Z,8.47
2019-01-09T12:45:46.115Z,8.87
2019-01-09T12:48:16.341Z,8.70
2019-01-09T12:50:46.274Z,8.50
2019-01-09T12:53:16.186Z,8.10
2019-01-09T12:55:46.092Z,7.60
2019-01-09T12:58:16.676Z,8.00
2019-01-09T13:00:46.673Z,8.97
2019-01-09T13:03:16.592Z,8.30
2019-01-09T13:05:46.701Z,7.90
2019-01-09T13:08:16.777Z,8.50
2019-01-09T13:10:46.861Z,8.37
2019-01-09T13:13:16.744Z,8.70
2019-01-09T13:15:46.731Z,8.70
2019-01-09T13:18:16.695Z,7.60
2019-01-09T13:20:47.073Z,8.33
2019-01-09T13:23:17.017Z,9.00
2019-01-09T13:25:46.959Z,7.53
2019-01-09T13:28:16.977Z,8.10
2019-01-09T13:30:47.022Z,8.73
2019-01-09T13:33:17.077Z,7.40
2019-01-09T13:35:47.012Z,7.90
2019-01-09T13:38:16.982Z,7.87
2019-01-09T13:40:46.913Z,8.20
2019-01-09T13:43:16.922Z,8.43
2019-01-09T13:45:47.390Z,7.80
2019-01-09T13:48:17.645Z,7.13
2019-01-09T13:50:47.592Z,6.30
2019-01-09T13:53:17.625Z,7.37
2019-01-09T13:55:47.593Z,6.93
2019-01-09T13:58:18.189Z,7.37
2019-01-09T14:00:48.330Z,5.60
2019-01-09T14:03:18.285Z,5.73
2019-01-09T14:05:48.371Z,6.10
2019-01-09T14:08:19.272Z,5.70
2019-01-09T14:10:49.261Z,6.27
2019-01-09T14:13:19.239Z,6.80
2019-01-09T14:15:49.185Z,6.40
2019-01-09T14:18:19.362Z,6.23
2019-01-09T14:20:49.653Z,6.63
2019-01-09T14:23:19.637Z,6.20
2019-01-09T14:25:49.733Z,5.33
2019-01-09T14:28:19.670Z,6.07
2019-01-09T14:30:49.930Z,6.40
2019-01-09T14:33:19.822Z,6.30
2019-01-09T14:35:49.821Z,5.83
2019-01-09T14:38:19.990Z,6.50
2019-01-09T14:40:49.890Z,6.73
2019-01-09T14:43:20.198Z,6.77
2019-01-09T14:45:50.181Z,6.90
2019-01-09T14:48:20.121Z,6.53
2019-01-09T14:50:50.281Z,6.83
2019-01-09T14:53:20.353Z,7.30
2019-01-09T14:55:50.544Z,7.90
2019-01-09T14:58:20.956Z,6.60
2019-01-09T15:00:50.894Z,7.37
2019-01-09T15:03:20.824Z,7.60
2019-01-09T15:05:50.813Z,7.33
2019-01-09T15:08:21.073Z,8.37
2019-01-09T15:10:51.026Z,8.20
2019-01-09T15:13:21.088Z,8.50
2019-01-09T15:15:51.081Z,7.40
2019-01-09T15:18:21.079Z,7.40
2019-01-09T15:20:50.993Z,8.40
2019-01-09T15:23:20.953Z,8.70
2019-01-09T15:25:51.365Z,7.83
2019-01-09T15:28:21.366Z,7.13
2019-01-09T15:30:51.510Z,7.70
2019-01-09T15:33:21.433Z,8.20
2019-01-09T15:35:51.376Z,7.77
2019-01-09T15:38:21.345Z,7.40
2019-01-09T15:40:51.386Z,7.50
2019-01-09T15:43:21.358Z,7.73
2019-01-09T15:45:51.277Z,7.23
2019-01-09T15:48:21.716Z,7.57
2019-01-09T15:50:51.634Z,7.13
2019-01-09T15:53:21.589Z,7.00
2019-01-09T15:55:51.821Z,7.37
2019-01-09T15:58:21.802Z,6.57
2019-01-09T16:00:55.265Z,6.80
2019-01-09T16:03:25.300Z,8.70
2019-01-09T16:05:55.639Z,8.07
2019-01-09T16:08:25.578Z,8.33
2019-01-09T16:10:56.066Z,9.00
2019-01-09T16:13:26.107Z,9.07
2019-01-09T16:15:57.494Z,8.10
2019-01-09T16:18:27.579Z,8.63
2019-01-09T16:20:57.513Z,8.07
2019-01-09T16:23:27.478Z,7.50
2019-01-09T16:25:57.497Z,8.57
2019-01-09T16:28:27.433Z,8.33
2019-01-09T16:31:08.774Z,8.00
2019-01-09T16:33:38.820Z,12.10
2019-01-09T16:36:09.033Z,12.30
2019-01-09T16:38:39.215Z,13.13
2019-01-09T16:41:09.197Z,14.40
2019-01-09T16:43:39.210Z,13.77
2019-01-09T16:46:09.438Z,13.97
2019-01-09T16:48:39.757Z,13.90
2019-01-09T16:51:10.129Z,12.37
2019-01-09T16:53:40.183Z,11.97
2019-01-09T16:56:10.393Z,11.13
2019-01-09T16:58:40.537Z,10.70
2019-01-09T17:01:10.554Z,11.40
2019-01-09T17:03:40.665Z,11.03
2019-01-09T17:06:10.711Z,10.13
2019-01-09T17:08:40.805Z,9.80
2019-01-09T17:11:10.725Z,10.07
2019-01-09T17:13:43.006Z,10.20
2019-01-09T17:16:13.146Z,10.30
2019-01-09T17:18:43.100Z,11.30
2019-01-09T17:21:13.177Z,9.73
2019-01-09T17:23:43.314Z,11.60
2019-01-09T17:26:13.390Z,9.80
2019-01-09T17:28:43.318Z,10.43
2019-01-09T17:31:13.707Z,9.77
2019-01-09T17:33:45.401Z,8.90
2019-01-09T17:36:15.329Z,10.07
2019-01-09T17:38:45.302Z,9.50
2019-01-09T17:41:15.412Z,10.27
2019-01-09T17:43:45.302Z,9.20
2019-01-09T17:46:15.256Z,9.30
2019-01-09T17:48:45.320Z,10.00
2019-01-09T17:51:21.296Z,9.70
2019-01-09T17:53:51.254Z,9.90
2019-01-09T17:56:21.436Z,9.60
2019-01-09T17:58:51.476Z,9.80
2019-01-09T18:01:21.675Z,9.00
2019-01-09T18:03:51.917Z,9.20
2019-01-09T18:06:40.837Z,9.47
2019-01-09T18:09:11.065Z,9.67
2019-01-09T18:11:41.069Z,9.73
2019-01-09T18:14:11.389Z,8.83
2019-01-09T18:16:41.418Z,9.33
2019-01-09T18:19:11.365Z,9.67
2019-01-09T18:21:41.710Z,8.93
2019-01-09T18:24:14.592Z,9.17
2019-01-09T18:26:44.777Z,9.50
2019-01-09T18:29:14.843Z,10.03
2019-01-09T18:32:33.845Z,9.60
2019-01-09T18:35:20.771Z,10.80
2019-01-09T18:38:15.814Z,9.93
2019-01-09T18:41:17.121Z,9.50
2019-01-09T18:44:12.046Z,10.60
2019-01-09T18:47:22.999Z,12.00
2019-01-09T18:50:34.769Z,11.50
2019-01-09T18:53:34.665Z,12.00
2019-01-09T18:56:06.825Z,12.57
2019-01-09T18:58:36.862Z,12.37
2019-01-09T19:01:09.609Z,12.60
2019-01-09T19:03:39.942Z,12.83
2019-01-09T19:06:10.265Z,12.50
2019-01-09T19:08:40.253Z,11.80
2019-01-09T19:11:10.442Z,13.83
2019-01-09T19:13:40.950Z,10.87
2019-01-09T19:16:11.393Z,11.30
2019-01-09T19:18:41.397Z,12.40
2019-01-09T19:21:11.306Z,9.90
2019-01-09T19:23:41.865Z,10.73
2019-01-09T19:26:11.833Z,12.90
2019-01-09T19:28:42.673Z,12.93
2019-01-09T19:31:13.757Z,11.67
2019-01-09T19:33:43.909Z,13.97
2019-01-09T19:36:14.173Z,15.00
2019-01-09T19:38:47.214Z,13.20
2019-01-09T19:41:18.937Z,13.60
2019-01-09T19:43:49.251Z,14.73
2019-01-09T19:46:19.248Z,12.07
2019-01-09T19:48:52.158Z,10.10
2019-01-09T19:51:22.212Z,5.20
2019-01-09T19:53:52.292Z,4.50
2019-01-09T19:56:22.220Z,5.60
2019-01-09T19:58:53.702Z,5.73
2019-01-09T20:01:23.769Z,5.83
2019-01-09T20:03:53.906Z,5.20
2019-01-09T20:06:26.617Z,4.90
2019-01-09T20:08:58.035Z,4.97
2019-01-09T20:11:28.199Z,4.30
2019-01-09T20:13:58.265Z,5.00
2019-01-09T20:16:28.399Z,4.33
2019-01-09T20:18:58.297Z,4.60
2019-01-09T20:21:28.864Z,3.97
2019-01-09T20:23:59.519Z,4.10
2019-01-09T20:26:36.462Z,3.80
2019-01-09T20:29:06.486Z,4.90
2019-01-09T20:31:36.833Z,4.50
2019-01-09T20:34:07.222Z,4.40
2019-01-09T20:36:37.168Z,4.33
2019-01-09T20:39:09.755Z,4.77
2019-01-09T20:41:40.337Z,5.77
2019-01-09T20:44:10.422Z,5.60
2019-01-09T20:46:41.681Z,5.07
2019-01-09T20:49:11.759Z,4.80
2019-01-09T20:51:41.903Z,4.90
2019-01-09T20:54:12.104Z,5.20
2019-01-09T20:56:42.140Z,4.17
2019-01-09T20:59:12.236Z,4.20
2019-01-09T21:01:42.301Z,5.33
2019-01-09T21:04:12.828Z,5.00
2019-01-09T21:06:42.841Z,4.97
2019-01-09T21:09:13.114Z,5.03
2019-01-09T21:11:44.586Z,4.83
2019-01-09T21:14:14.700Z,4.70
2019-01-09T21:16:44.644Z,4.50
2019-01-09T21:19:14.769Z,5.07
2019-01-09T21:21:45.100Z,4.10
2019-01-09T21:24:15.237Z,5.40
2019-01-09T21:26:45.325Z,4.37
2019-01-09T21:29:15.503Z,4.60
2019-01-09T21:31:45.524Z,4.03
2019-01-09T21:34:15.641Z,4.33
2019-01-09T21:36:45.647Z,5.87
2019-01-09T21:39:15.582Z,4.23
2019-01-09T21:41:53.261Z,5.63
2019-01-09T21:44:19.999Z,4.70
2019-01-09T21:46:50.000Z,4.60
2019-01-09T21:49:20.313Z,4.60
2019-01-09T21:51:50.265Z,4.30
2019-01-09T21:54:20.345Z,4.77
2019-01-09T21:56:50.296Z,4.80
2019-01-09T21:59:20.489Z,5.97
2019-01-09T22:01:50.697Z,4.70
2019-01-09T22:04:20.934Z,5.40
2019-01-09T22:06:55.128Z,5.87
2019-01-09T22:09:25.103Z,4.73
2019-01-09T22:12:02.356Z,5.40
2019-01-09T22:14:27.832Z,4.77
2019-01-09T22:16:57.948Z,4.07
2019-01-09T22:19:28.221Z,4.27
2019-01-09T22:21:58.693Z,4.37
2019-01-09T22:24:28.854Z,7.90
2019-01-09T22:26:59.493Z,4.00
2019-01-09T22:29:31.105Z,5.13
2019-01-09T22:32:01.183Z,4.30
2019-01-09T22:34:31.161Z,4.40
2019-01-09T22:37:01.068Z,4.87
2019-01-09T22:39:31.058Z,4.27
2019-01-09T22:42:01.027Z,3.93
2019-01-09T22:44:31.310Z,5.40
2019-01-09T22:47:02.182Z,4.17
2019-01-09T22:49:32.113Z,5.30
2019-01-09T22:52:02.273Z,5.70
2019-01-09T22:54:36.976Z,5.17
2019-01-09T22:57:04.177Z,4.67
2019-01-09T22:59:34.125Z,5.70
2019-01-09T23:02:04.281Z,5.57
2019-01-09T23:04:34.824Z,4.40
2019-01-09T23:07:05.235Z,4.80
2019-01-09T23:09:35.209Z,6.20
2019-01-09T23:12:05.257Z,5.63
2019-01-09T23:14:35.309Z,6.27
2019-01-09T23:17:05.435Z,6.80
2019-01-09T23:19:35.657Z,7.90
2019-01-09T23:22:05.745Z,7.40
2019-01-09T23:24:35.680Z,8.20
2019-01-09T23:27:05.812Z,6.97
2019-01-09T23:29:35.925Z,7.10
2019-01-09T23:32:06.203Z,6.77
2019-01-09T23:34:36.573Z,6.97
2019-01-09T23:37:08.857Z,5.97
2019-01-09T23:39:38.892Z,6.00
2019-01-09T23:42:09.257Z,4.90
2019-01-09T23:44:39.228Z,5.50
2019-01-09T23:47:09.897Z,6.20
2019-01-09T23:49:39.873Z,6.50
2019-01-09T23:52:10.037Z,5.70
2019-01-09T23:54:40.236Z,6.23
2019-01-09T23:57:29.161Z,5.30
2019-01-09T23:59:59.273Z,5.60
